Terminal Aerodrome Forecast
Issued by NWS Twin Cities, MN

Home | Current Version | Previous Version | Graphics & Text | Print | Product List | Glossary On
Versions: 1 2 3 4 5 6 7 8 9 10 11 12 13 14 15
000
FTUS43 KMPX 211501 AAA
TAFSTC
TAF AMD
KSTC 211501Z 2115/2212 16014G21KT P6SM -SHRA SCT009 OVC015
     FM211600 17015G23KT P6SM OVC014
     FM212100 18010G20KT P6SM VCSH OVC020
     FM220100 24010KT P6SM BKN050=

USA.gov is the U.S. government's official web portal to all federal, state and local government web resources and services.